Time;durP1;ratioP1;P1;durP2;ratioP2;P2;SDS_P1;SDS_P2;PMS_P1;PMS_P2;Temp;Humidity;BMP_temperature;BMP_pressure;BME280_temperature;BME280_humidity;BME280_pressure;Samples;Min_cycle;Max_cycle;Signal;HPM_P1;HPM_P2
2021/01/21 03:45:27;;;;;;;1.00;0.90;;;11.30;44.90;;;;;;5964435;23;89236;-85
2021/01/21 03:47:54;;;;;;;0.85;0.85;;;11.40;45.30;;;;;;4948956;28;86927;-84
2021/01/21 03:50:20;;;;;;;0.75;0.75;;;11.30;45.70;;;;;;4968716;28;87852;-84
2021/01/21 03:52:46;;;;;;;2.75;2.65;;;;;;;;;;4949107;28;87033;-84
2021/01/21 03:55:12;;;;;;;0.63;0.63;;;11.30;45.00;;;;;;4968750;28;87185;-86
2021/01/21 03:57:38;;;;;;;0.98;0.98;;;11.20;45.90;;;;;;4947888;28;86846;-85
2021/01/21 04:00:04;;;;;;;0.77;0.77;;;11.10;46.50;;;;;;4948297;28;86907;-85
2021/01/21 04:02:30;;;;;;;0.80;0.80;;;11.10;46.60;;;;;;4955474;28;86960;-86
2021/01/21 04:04:56;;;;;;;0.95;0.77;;;11.10;45.40;;;;;;4967963;28;86943;-85
2021/01/21 04:07:21;;;;;;;0.88;0.88;;;11.30;45.30;;;;;;4965155;28;86629;-84
2021/01/21 04:09:47;;;;;;;1.20;1.10;;;11.30;45.60;;;;;;4950171;28;87001;-85
2021/01/21 04:12:13;;;;;;;1.45;0.82;;;11.30;45.50;;;;;;4952371;28;87076;-85
2021/01/21 04:14:38;;;;;;;1.00;1.00;;;11.20;46.20;;;;;;4948197;28;88224;-85
2021/01/21 04:17:04;;;;;;;0.90;0.90;;;11.20;45.40;;;;;;4948149;28;89050;-85
2021/01/21 04:19:30;;;;;;;0.93;0.93;;;11.30;45.30;;;;;;4949227;28;86895;-83
2021/01/21 04:21:55;;;;;;;0.90;0.90;;;11.30;46.10;;;;;;4949817;28;86548;-85
2021/01/21 04:24:21;;;;;;;0.70;0.70;;;11.30;45.70;;;;;;4967576;28;88234;-83
2021/01/21 04:26:46;;;;;;;0.80;0.80;;;11.20;46.60;;;;;;4958403;28;86994;-84
2021/01/21 04:29:12;;;;;;;0.90;0.90;;;11.20;45.70;;;;;;4949576;28;86984;-84
2021/01/21 04:31:38;;;;;;;0.65;0.65;;;11.30;45.80;;;;;;4938956;28;86366;-84
2021/01/21 04:34:04;;;;;;;0.80;0.80;;;11.20;45.50;;;;;;4967758;28;86800;-83
2021/01/21 04:36:30;;;;;;;1.00;1.00;;;11.30;45.50;;;;;;4961903;28;87403;-85
2021/01/21 04:38:55;;;;;;;1.25;1.15;;;11.30;46.40;;;;;;4947928;28;87732;-83
2021/01/21 04:41:21;;;;;;;0.80;0.80;;;11.30;45.80;;;;;;4938960;28;86887;-85
2021/01/21 04:43:47;;;;;;;1.52;1.20;;;11.20;45.40;;;;;;4930056;28;88785;-85
2021/01/21 04:46:13;;;;;;;0.82;0.82;;;11.30;45.60;;;;;;4954138;28;87112;-85
2021/01/21 04:48:40;;;;;;;1.27;1.20;;;11.20;45.00;;;;;;4968222;28;86704;-85
2021/01/21 04:51:06;;;;;;;1.00;1.00;;;11.20;45.50;;;;;;4967027;28;86302;-84
2021/01/21 04:53:36;;;;;;;0.90;0.90;;;11.30;45.20;;;;;;4967017;28;87381;-87
2021/01/21 04:56:04;;;;;;;0.90;0.90;;;11.30;45.30;;;;;;4976636;28;87616;-86
2021/01/21 04:58:51;;;;;;;1.02;1.02;;;11.30;45.80;;;;;;4977800;28;86871;-86
2021/01/21 05:01:18;;;;;;;0.85;0.85;;;11.20;45.60;;;;;;4969034;28;86940;-85
2021/01/21 05:03:45;;;;;;;0.90;0.90;;;11.10;46.10;;;;;;4938900;28;91968;-86
2021/01/21 05:06:11;;;;;;;1.42;0.98;;;11.10;45.40;;;;;;4974568;28;87918;-85
2021/01/21 05:08:37;;;;;;;1.10;1.10;;;11.10;46.00;;;;;;4964499;28;86880;-85
2021/01/21 05:11:03;;;;;;;0.70;0.70;;;11.20;45.30;;;;;;4967200;28;87033;-86
2021/01/21 05:13:28;;;;;;;0.98;0.98;;;11.30;45.10;;;;;;4950676;28;87246;-87
2021/01/21 05:15:54;;;;;;;0.95;0.90;;;11.30;45.80;;;;;;4962300;28;86592;-84
2021/01/21 05:18:28;;;;;;;0.70;0.70;;;11.20;45.90;;;;;;4964209;28;86873;-84
2021/01/21 05:20:54;;;;;;;0.80;0.80;;;11.20;45.60;;;;;;4967774;28;86171;-85
2021/01/21 05:23:23;;;;;;;1.00;1.00;;;11.30;45.70;;;;;;4965642;28;88552;-85
2021/01/21 05:25:48;;;;;;;0.88;0.88;;;11.20;45.80;;;;;;4961087;28;87193;-84
2021/01/21 05:28:14;;;;;;;1.52;1.17;;;11.20;46.00;;;;;;4967575;28;87608;-84
2021/01/21 05:30:40;;;;;;;0.85;0.85;;;11.20;45.90;;;;;;4936889;28;87446;-84
2021/01/21 05:33:06;;;;;;;0.80;0.80;;;11.20;46.00;;;;;;4962212;28;87219;-85
2021/01/21 05:35:32;;;;;;;0.75;0.75;;;11.10;46.10;;;;;;4936200;28;90760;-85
2021/01/21 05:37:58;;;;;;;1.27;0.95;;;11.10;47.00;;;;;;4959993;28;86827;-85
2021/01/21 05:40:26;;;;;;;0.80;0.80;;;11.00;46.80;;;;;;4957498;28;86862;-84
2021/01/21 05:42:56;;;;;;;0.82;0.82;;;11.00;47.30;;;;;;4966713;28;87672;-86
2021/01/21 05:45:23;;;;;;;1.10;1.10;;;11.10;46.00;;;;;;4962373;28;86228;-85
2021/01/21 05:48:01;;;;;;;0.80;0.80;;;11.00;46.60;;;;;;4945785;28;86634;-86
2021/01/21 05:50:28;;;;;;;0.70;0.70;;;11.10;46.10;;;;;;4948896;28;86974;-85
2021/01/21 05:52:56;;;;;;;0.80;0.80;;;11.20;45.70;;;;;;4933770;28;87932;-85
2021/01/21 05:55:26;;;;;;;0.95;0.93;;;11.20;45.90;;;;;;4945541;28;87222;-86
2021/01/21 05:57:53;;;;;;;0.80;0.80;;;11.20;45.50;;;;;;4949093;28;86957;-84
2021/01/21 06:00:20;;;;;;;0.73;0.73;;;11.20;45.80;;;;;;4949849;28;86990;-85
2021/01/21 06:02:50;;;;;;;0.93;0.90;;;11.20;45.70;;;;;;4941799;28;87531;-85
2021/01/21 06:05:21;;;;;;;0.80;0.80;;;11.20;46.30;;;;;;4933601;28;87044;-85
2021/01/21 06:07:47;;;;;;;3.22;1.02;;;11.20;45.10;;;;;;4949775;28;87071;-87
2021/01/21 06:10:14;;;;;;;0.90;0.90;;;11.30;45.30;;;;;;4941299;28;85917;-83
2021/01/21 06:12:49;;;;;;;1.00;0.90;;;11.30;44.60;;;;;;4939883;28;86987;-87
2021/01/21 06:15:17;;;;;;;1.05;0.80;;;11.30;45.20;;;;;;4938553;28;88872;-87
2021/01/21 06:17:44;;;;;;;0.77;0.77;;;11.20;45.10;;;;;;4952127;28;87998;-87
2021/01/21 06:20:12;;;;;;;0.90;0.90;;;11.20;45.40;;;;;;4947323;28;87112;-86
2021/01/21 06:22:46;;;;;;;0.80;0.80;;;11.20;45.70;;;;;;4934252;28;88982;-84
2021/01/21 06:25:14;;;;;;;1.00;1.00;;;11.20;45.00;;;;;;4943458;28;87283;-86
2021/01/21 06:27:44;;;;;;;0.82;0.82;;;11.20;45.50;;;;;;4947068;28;86891;-85
2021/01/21 06:30:21;;;;;;;1.33;1.33;;;11.10;45.20;;;;;;4950801;28;87028;-86
2021/01/21 06:33:04;;;;;;;1.00;1.00;;;11.20;45.40;;;;;;4944588;28;87341;-85
2021/01/21 06:35:35;;;;;;;1.10;1.10;;;11.20;45.60;;;;;;4937387;28;87032;-86
2021/01/21 06:38:12;;;;;;;0.90;0.90;;;11.20;45.50;;;;;;4945511;28;87772;-84
2021/01/21 06:40:41;;;;;;;1.00;1.00;;;11.20;45.80;;;;;;4938467;28;86690;-86
2021/01/21 06:43:36;;;;;;;0.88;0.88;;;11.20;46.30;;;;;;4944658;28;87770;-85
2021/01/21 06:46:02;;;;;;;1.00;1.00;;;11.10;46.30;;;;;;4947485;28;87588;-84
2021/01/21 06:48:29;;;;;;;1.10;1.10;;;11.00;46.20;;;;;;4959121;28;87151;-86
2021/01/21 06:50:55;;;;;;;0.82;0.82;;;11.10;45.70;;;;;;4959620;28;86803;-86
2021/01/21 06:53:22;;;;;;;0.77;0.77;;;11.20;45.20;;;;;;4967266;28;87412;-85
2021/01/21 06:55:53;;;;;;;0.80;0.80;;;11.30;44.90;;;;;;4942304;28;88630;-84
2021/01/21 06:58:45;;;;;;;0.80;0.80;;;11.30;45.80;;;;;;4960316;28;87124;-86
2021/01/21 07:01:31;;;;;;;1.25;1.15;;;11.20;45.10;;;;;;4955910;28;86137;-84
2021/01/21 07:04:25;;;;;;;0.75;0.75;;;11.30;44.80;;;;;;4947015;28;88235;-84
2021/01/21 07:06:54;;;;;;;1.08;1.05;;;11.50;45.00;;;;;;4961840;28;90348;-83
2021/01/21 07:09:25;;;;;;;0.90;0.90;;;11.30;45.20;;;;;;4961924;28;87911;-84
2021/01/21 07:11:57;;;;;;;0.77;0.77;;;11.20;45.30;;;;;;4953487;28;87049;-84
2021/01/21 07:14:25;;;;;;;0.98;0.90;;;11.30;44.90;;;;;;4958981;28;87578;-86
2021/01/21 07:17:05;;;;;;;0.90;0.90;;;11.40;44.60;;;;;;4960065;28;87940;-82
2021/01/21 07:19:36;;;;;;;0.82;0.82;;;11.30;45.00;;;;;;4965235;28;87074;-83
2021/01/21 07:22:13;;;;;;;0.90;0.90;;;11.30;45.10;;;;;;4954687;28;87836;-84
2021/01/21 07:24:54;;;;;;;0.80;0.80;;;11.30;45.10;;;;;;4955331;28;87050;-83
2021/01/21 07:27:20;;;;;;;;;;;11.30;45.20;;;;;;4958039;28;87150;-83
2021/01/21 07:29:46;;;;;;;1.10;1.10;;;11.20;45.40;;;;;;4961839;28;87010;-85
2021/01/21 07:32:12;;;;;;;1.13;1.05;;;11.30;45.00;;;;;;4957625;28;86753;-85
2021/01/21 07:34:42;;;;;;;0.95;0.95;;;11.30;45.50;;;;;;4965092;28;87551;-83
2021/01/21 07:37:29;;;;;;;0.93;0.93;;;11.40;44.70;;;;;;4961287;28;87337;-86
2021/01/21 07:40:08;;;;;;;0.90;0.90;;;11.30;45.00;;;;;;4941655;28;86551;-86
2021/01/21 07:42:36;;;;;;;2.92;1.15;;;11.30;44.80;;;;;;4962018;28;86844;-86
2021/01/21 07:45:03;;;;;;;1.75;1.00;;;11.30;45.70;;;;;;4948700;28;88393;-85
2021/01/21 07:47:39;;;;;;;0.80;0.80;;;11.30;45.30;;;;;;4955346;28;88749;-86
2021/01/21 07:50:14;;;;;;;0.80;0.80;;;11.30;45.00;;;;;;4966019;28;86969;-85
2021/01/21 07:52:44;;;;;;;0.80;0.80;;;11.40;44.80;;;;;;4956675;28;86767;-84
2021/01/21 07:55:11;;;;;;;0.97;0.97;;;11.40;45.10;;;;;;4964801;28;86736;-85
2021/01/21 07:57:37;;;;;;;0.93;0.93;;;11.40;45.10;;;;;;4954463;28;87851;-86
2021/01/21 08:00:05;;;;;;;1.25;1.25;;;11.50;45.20;;;;;;4928276;28;87684;-86
2021/01/21 08:02:47;;;;;;;1.02;1.02;;;11.50;45.00;;;;;;4956247;28;86937;-84
2021/01/21 08:05:20;;;;;;;1.10;1.10;;;11.50;45.50;;;;;;4966276;28;87177;-85
2021/01/21 08:07:49;;;;;;;0.80;0.80;;;11.50;45.30;;;;;;4954575;28;86885;-83
2021/01/21 08:10:19;;;;;;;0.93;0.93;;;11.60;45.20;;;;;;4959122;28;87064;-84
2021/01/21 08:12:54;;;;;;;1.08;1.00;;;11.60;45.20;;;;;;4954234;28;87141;-84
2021/01/21 08:15:23;;;;;;;2.13;0.90;;;11.70;44.60;;;;;;4949885;28;89898;-83
2021/01/21 08:17:50;;;;;;;0.90;0.90;;;11.70;44.70;;;;;;4964604;28;87048;-83
2021/01/21 08:20:26;;;;;;;0.88;0.88;;;11.80;45.10;;;;;;4966528;28;87239;-84
2021/01/21 08:22:59;;;;;;;1.15;1.00;;;11.80;44.60;;;;;;4962220;28;86787;-83
2021/01/21 08:25:30;;;;;;;0.68;0.68;;;12.10;44.20;;;;;;4960618;28;88457;-84
2021/01/21 08:27:57;;;;;;;2.10;1.20;;;12.40;43.60;;;;;;4980999;28;87035;-83
2021/01/21 08:30:27;;;;;;;1.00;0.80;;;12.70;42.90;;;;;;4971488;28;87506;-85
2021/01/21 08:32:56;;;;;;;1.00;1.00;;;12.90;43.00;;;;;;4971338;28;86989;-84
2021/01/21 08:35:24;;;;;;;1.00;0.90;;;12.80;42.50;;;;;;4974098;28;87645;-85
2021/01/21 08:37:53;;;;;;;0.95;0.95;;;12.70;42.90;;;;;;4956206;28;87097;-85
2021/01/21 08:40:20;;;;;;;1.13;1.13;;;12.70;42.90;;;;;;4979399;28;86853;-84
2021/01/21 08:42:51;;;;;;;0.93;0.93;;;12.60;43.70;;;;;;4975749;28;85781;-83
2021/01/21 08:45:19;;;;;;;1.17;1.02;;;12.90;42.70;;;;;;4980374;28;87373;-84
2021/01/21 08:47:46;;;;;;;1.02;1.02;;;12.90;43.10;;;;;;4970914;28;86901;-85
2021/01/21 08:50:14;;;;;;;1.00;1.00;;;12.80;43.20;;;;;;4968906;28;87483;-85
2021/01/21 08:53:00;;;;;;;1.10;1.10;;;12.80;42.40;;;;;;4959775;28;87022;-84
2021/01/21 08:55:42;;;;;;;1.05;1.00;;;12.90;42.80;;;;;;4958307;28;88305;-83
2021/01/21 08:58:13;;;;;;;0.82;0.82;;;13.90;41.40;;;;;;4967765;28;87666;-85
2021/01/21 09:00:57;;;;;;;3.20;1.27;;;13.90;40.70;;;;;;4960899;28;87054;-85
2021/01/21 09:03:36;;;;;;;1.10;1.10;;;13.50;41.50;;;;;;4966488;28;86942;-84
2021/01/21 09:06:07;;;;;;;1.33;1.33;;;13.40;42.40;;;;;;4967576;28;87159;-85
2021/01/21 09:08:44;;;;;;;;;;;13.50;42.00;;;;;;4963241;28;86799;-85
2021/01/21 09:11:28;;;;;;;0.90;0.90;;;13.40;42.20;;;;;;4964458;28;86265;-85
2021/01/21 09:13:53;;;;;;;1.38;1.27;;;13.30;41.90;;;;;;4964183;28;87202;-85
2021/01/21 09:16:19;;;;;;;1.00;1.00;;;13.40;42.60;;;;;;4965733;28;87635;-85
2021/01/21 09:18:46;;;;;;;1.00;0.90;;;13.50;42.10;;;;;;4960601;28;87926;-85
2021/01/21 09:21:16;;;;;;;1.00;0.88;;;13.60;41.70;;;;;;4963163;28;87044;-86
2021/01/21 09:23:41;;;;;;;2.83;2.58;;;13.50;41.50;;;;;;4964046;28;87038;-84
2021/01/21 09:26:15;;;;;;;2.60;2.40;;;13.60;44.60;;;;;;4960223;28;86890;-84
2021/01/21 09:28:59;;;;;;;1.13;1.13;;;13.10;45.10;;;;;;4955358;28;87132;-84
2021/01/21 09:31:30;;;;;;;1.42;1.17;;;12.80;43.40;;;;;;4960093;28;88086;-84
2021/01/21 09:33:56;;;;;;;1.30;1.20;;;13.20;43.10;;;;;;4963569;28;86338;-84
2021/01/21 09:36:29;;;;;;;0.95;0.95;;;13.70;41.80;;;;;;4963960;28;87833;-84
2021/01/21 09:38:56;;;;;;;2.78;1.00;;;13.70;42.40;;;;;;4961909;28;87868;-86
2021/01/21 09:41:22;;;;;;;0.80;0.80;;;14.00;41.10;;;;;;4959932;28;87947;-85
2021/01/21 09:43:48;;;;;;;1.25;1.10;;;13.80;41.80;;;;;;4962709;28;86958;-85
2021/01/21 09:46:14;;;;;;;0.80;0.80;;;13.60;41.80;;;;;;4962579;28;88247;-86
2021/01/21 09:48:40;;;;;;;0.90;0.90;;;13.60;42.10;;;;;;4963025;28;87024;-85
2021/01/21 09:51:06;;;;;;;0.95;0.95;;;14.00;42.40;;;;;;4960766;28;87870;-86
2021/01/21 09:53:32;;;;;;;0.75;0.75;;;14.30;41.30;;;;;;4961589;28;86866;-85
2021/01/21 09:55:58;;;;;;;2.67;2.58;;;14.70;40.20;;;;;;4961582;28;87685;-84
2021/01/21 09:58:27;;;;;;;2.63;2.53;;;15.00;39.40;;;;;;4961501;28;86253;-84
2021/01/21 10:00:52;;;;;;;0.90;0.90;;;15.10;39.80;;;;;;4959863;28;86514;-85
2021/01/21 10:03:19;;;;;;;2.38;2.25;;;15.70;38.20;;;;;;4961427;28;86305;-85
2021/01/21 10:05:46;;;;;;;0.90;0.90;;;15.70;38.60;;;;;;4961095;28;88352;-86
2021/01/21 10:08:12;;;;;;;2.50;2.40;;;16.30;38.70;;;;;;4964041;28;87559;-86
2021/01/21 10:10:38;;;;;;;1.00;1.00;;;16.70;36.80;;;;;;4963274;28;87042;-86
2021/01/21 10:13:04;;;;;;;2.50;2.40;;;16.60;37.30;;;;;;4945241;28;87155;-86
2021/01/21 10:15:29;;;;;;;0.88;0.88;;;16.30;37.60;;;;;;4959367;28;89063;-86
2021/01/21 10:17:55;;;;;;;2.33;2.22;;;15.60;38.50;;;;;;4961211;28;86180;-85
2021/01/21 10:20:21;;;;;;;2.40;2.30;;;15.10;39.40;;;;;;4959625;28;88101;-86
2021/01/21 10:22:47;;;;;;;2.60;2.50;;;14.50;39.80;;;;;;4961920;28;86297;-86
2021/01/21 10:25:13;;;;;;;0.90;0.90;;;14.70;40.40;;;;;;4958426;28;87212;-85
2021/01/21 10:27:39;;;;;;;0.90;0.90;;;14.90;39.80;;;;;;4942492;28;88493;-85
2021/01/21 10:30:05;;;;;;;2.63;2.53;;;15.10;39.90;;;;;;4954020;28;88756;-84
2021/01/21 10:32:32;;;;;;;2.42;2.33;;;15.30;39.30;;;;;;4957613;28;87560;-85
2021/01/21 10:34:58;;;;;;;2.50;2.40;;;15.20;39.30;;;;;;4957155;28;88529;-85
2021/01/21 10:37:23;;;;;;;1.00;1.00;;;15.00;39.70;;;;;;4942584;28;88920;-86
2021/01/21 10:39:49;;;;;;;0.85;0.85;;;15.20;39.50;;;;;;4965301;28;86663;-86
2021/01/21 10:42:15;;;;;;;2.25;2.22;;;15.50;38.80;;;;;;4960393;28;86686;-87
2021/01/21 10:44:40;;;;;;;2.05;2.05;;;16.10;38.40;;;;;;4967135;28;86738;-86
2021/01/21 10:47:07;;;;;;;2.40;2.30;;;16.70;37.40;;;;;;4957158;28;86791;-87
2021/01/21 10:49:32;;;;;;;2.25;2.15;;;16.50;37.70;;;;;;4967693;28;86970;-87
2021/01/21 10:51:59;;;;;;;2.25;2.15;;;16.50;37.50;;;;;;4958314;28;86586;-88
2021/01/21 10:54:25;;;;;;;2.72;2.63;;;16.20;38.50;;;;;;4956545;28;89191;-86
2021/01/21 10:56:54;;;;;;;1.63;1.00;;;16.10;38.20;;;;;;4964888;28;87510;-87
2021/01/21 10:59:20;;;;;;;2.13;2.13;;;16.30;38.20;;;;;;4952293;28;86982;-87
2021/01/21 11:01:46;;;;;;;1.00;1.00;;;16.70;37.60;;;;;;4950203;28;86948;-86
2021/01/21 11:04:12;;;;;;;2.60;2.50;;;17.20;37.40;;;;;;4960068;28;87535;-87
2021/01/21 11:06:37;;;;;;;2.10;2.00;;;16.90;37.00;;;;;;4960016;28;87063;-86
2021/01/21 11:09:04;;;;;;;5.43;4.45;;;16.80;37.50;;;;;;4961596;28;86881;-87
2021/01/21 11:11:29;;;;;;;3.90;3.63;;;17.30;39.60;;;;;;4963103;28;86356;-86
2021/01/21 11:13:55;;;;;;;5.18;4.72;;;17.10;37.60;;;;;;4955287;28;86907;-86
2021/01/21 11:16:21;;;;;;;2.88;2.63;;;16.40;41.00;;;;;;4964133;28;86926;-86
2021/01/21 11:18:47;;;;;;;3.10;2.80;;;15.70;40.70;;;;;;4966003;28;87852;-86
2021/01/21 11:21:12;;;;;;;7.90;7.10;;;15.60;39.90;;;;;;4959626;28;87000;-86
2021/01/21 11:23:38;;;;;;;7.25;6.55;;;14.90;44.30;;;;;;4966324;28;86731;-86
2021/01/21 11:26:04;;;;;;;7.97;7.18;;;14.80;44.50;;;;;;4966686;28;86830;-86
2021/01/21 11:28:29;;;;;;;10.32;7.35;;;14.50;45.30;;;;;;4961384;28;86785;-86
2021/01/21 11:30:55;;;;;;;8.35;7.45;;;14.00;46.30;;;;;;4964070;28;86851;-86
2021/01/21 11:33:21;;;;;;;9.77;7.30;;;13.30;48.10;;;;;;4949797;28;88187;-86
2021/01/21 11:35:46;;;;;;;8.68;7.32;;;13.00;48.70;;;;;;4965476;28;87017;-86
2021/01/21 11:38:14;;;;;;;7.88;6.75;;;12.80;49.50;;;;;;4959946;28;86915;-86
2021/01/21 11:40:40;;;;;;;8.48;7.10;;;12.60;49.50;;;;;;4957039;28;87053;-86
2021/01/21 11:43:07;;;;;;;8.50;6.18;;;12.30;50.70;;;;;;4958889;28;89234;-85
2021/01/21 11:45:33;;;;;;;8.40;6.80;;;12.80;50.40;;;;;;4944886;28;86945;-86
2021/01/21 11:47:58;;;;;;;8.20;7.13;;;12.90;50.30;;;;;;4940802;28;86926;-86
2021/01/21 11:50:24;;;;;;;8.20;6.75;;;13.80;48.30;;;;;;4944703;28;87015;-86
2021/01/21 11:52:50;;;;;;;6.97;6.20;;;14.90;47.00;;;;;;4942670;28;87106;-86
2021/01/21 11:55:16;;;;;;;7.28;6.57;;;;;;;;;;4941905;28;87123;-84
2021/01/21 11:57:42;;;;;;;6.70;6.05;;;17.20;42.10;;;;;;4938574;28;86968;-86
2021/01/21 12:00:14;;;;;;;6.38;4.93;;;18.30;41.00;;;;;;4943629;28;86328;-86
2021/01/21 12:02:40;;;;;;;8.75;6.55;;;19.70;39.10;;;;;;4929322;28;87765;-86
2021/01/21 12:05:07;;;;;;;8.18;7.40;;;21.00;37.10;;;;;;4946665;28;87281;-86
2021/01/21 12:07:33;;;;;;;8.30;7.10;;;21.60;36.60;;;;;;4936901;28;88106;-85
2021/01/21 12:09:58;;;;;;;7.22;6.60;;;22.60;34.70;;;;;;4941036;28;87280;-85
2021/01/21 12:12:24;;;;;;;6.90;6.30;;;23.70;34.30;;;;;;4940275;28;87358;-86
2021/01/21 12:14:50;;;;;;;7.10;6.43;;;25.20;33.10;;;;;;4945500;28;87143;-85
2021/01/21 12:17:17;;;;;;;7.90;7.10;;;26.40;31.60;;;;;;4942387;28;86953;-86
2021/01/21 12:19:44;;;;;;;7.32;6.72;;;26.30;30.80;;;;;;4936237;28;86969;-85
2021/01/21 12:22:09;;;;;;;7.10;6.40;;;26.70;30.30;;;;;;4941303;28;87252;-86
2021/01/21 12:24:35;;;;;;;6.95;6.38;;;26.60;29.40;;;;;;4943591;28;86793;-87
2021/01/21 12:27:01;;;;;;;7.35;6.65;;;26.60;29.90;;;;;;4944704;28;86603;-87
2021/01/21 12:29:27;;;;;;;6.85;6.10;;;25.40;29.80;;;;;;4957027;28;86515;-86
2021/01/21 12:31:52;;;;;;;6.25;5.75;;;23.70;31.30;;;;;;4951944;28;88148;-86
2021/01/21 12:34:19;;;;;;;5.78;5.28;;;22.00;32.70;;;;;;4942887;28;89498;-86
2021/01/21 12:36:44;;;;;;;5.75;5.28;;;20.60;34.70;;;;;;4955122;28;87211;-86
2021/01/21 12:39:10;;;;;;;6.28;5.47;;;19.20;37.00;;;;;;4947657;28;86973;-86
2021/01/21 12:41:36;;;;;;;6.93;5.85;;;17.60;39.70;;;;;;4947059;28;86735;-86
2021/01/21 12:44:01;;;;;;;6.78;6.18;;;16.90;40.60;;;;;;4942367;28;87471;-86
2021/01/21 12:46:28;;;;;;;6.35;5.68;;;16.50;41.10;;;;;;4940651;28;86900;-86
2021/01/21 12:48:55;;;;;;;5.82;5.32;;;16.20;42.10;;;;;;4961842;28;86473;-85
2021/01/21 12:51:21;;;;;;;7.20;5.25;;;15.80;42.60;;;;;;4940157;28;88228;-85
2021/01/21 12:53:48;;;;;;;6.00;5.45;;;15.40;44.60;;;;;;4961862;28;87500;-86
2021/01/21 12:56:13;;;;;;;6.25;5.53;;;14.50;45.60;;;;;;4937536;28;88116;-85
2021/01/21 12:58:41;;;;;;;6.47;5.30;;;14.10;46.80;;;;;;4959618;28;86498;-86
2021/01/21 13:01:06;;;;;;;5.68;4.90;;;13.90;47.10;;;;;;4961941;28;88810;-86
2021/01/21 13:03:32;;;;;;;5.82;5.22;;;13.30;49.00;;;;;;4966210;28;86907;-85
2021/01/21 13:05:58;;;;;;;5.75;4.90;;;13.20;48.70;;;;;;4958615;28;87150;-84
2021/01/21 13:08:24;;;;;;;5.80;5.30;;;13.20;48.60;;;;;;4963614;28;86696;-88
2021/01/21 13:10:49;;;;;;;6.30;5.75;;;13.10;49.10;;;;;;4940730;28;87802;-85
2021/01/21 13:13:16;;;;;;;5.57;5.07;;;13.20;48.80;;;;;;4963180;28;87087;-86
2021/01/21 13:15:42;;;;;;;5.80;5.20;;;13.30;48.80;;;;;;4962794;28;87063;-85
2021/01/21 13:18:08;;;;;;;5.40;5.00;;;13.40;48.80;;;;;;4963351;28;87139;-86
2021/01/21 13:20:34;;;;;;;4.20;3.80;;;13.10;50.00;;;;;;4959081;28;87994;-86
2021/01/21 13:22:59;;;;;;;4.68;4.05;;;12.60;50.70;;;;;;4959197;28;87653;-87
2021/01/21 13:25:25;;;;;;;5.70;4.72;;;12.50;50.80;;;;;;4948142;28;87097;-87
2021/01/21 13:27:51;;;;;;;5.05;4.07;;;12.50;50.70;;;;;;4951145;28;87092;-87
2021/01/21 13:30:17;;;;;;;3.30;3.00;;;12.50;49.90;;;;;;4961562;28;87414;-87
2021/01/21 13:32:43;;;;;;;2.90;2.80;;;12.80;47.20;;;;;;4927914;28;87865;-86
2021/01/21 13:35:08;;;;;;;3.03;2.83;;;13.00;47.00;;;;;;4963814;28;87158;-87
2021/01/21 13:37:34;;;;;;;2.33;2.22;;;13.10;46.40;;;;;;4966313;28;86021;-86
2021/01/21 13:40:00;;;;;;;2.60;2.47;;;13.20;46.10;;;;;;4963990;28;87175;-87
2021/01/21 13:42:27;;;;;;;2.75;2.65;;;13.20;47.00;;;;;;4963311;28;86980;-87
2021/01/21 13:44:53;;;;;;;3.08;2.90;;;13.20;46.40;;;;;;4964022;28;87687;-86
2021/01/21 13:47:19;;;;;;;5.13;4.63;;;13.40;46.40;;;;;;4959158;28;87066;-87
2021/01/21 13:49:45;;;;;;;5.82;5.00;;;13.50;47.70;;;;;;4942680;28;86537;-86
2021/01/21 13:52:10;;;;;;;5.28;4.78;;;13.50;48.50;;;;;;4959905;28;86962;-87
2021/01/21 13:54:36;;;;;;;6.07;4.30;;;13.50;48.60;;;;;;4965271;28;87202;-87
2021/01/21 13:57:02;;;;;;;5.20;4.70;;;13.60;48.00;;;;;;4964533;28;87062;-86
2021/01/21 13:59:29;;;;;;;6.72;5.40;;;13.50;48.70;;;;;;4957408;28;89311;-86
2021/01/21 14:01:54;;;;;;;5.97;5.45;;;13.30;49.10;;;;;;4956384;28;86405;-85
2021/01/21 14:04:20;;;;;;;5.82;5.25;;;13.20;49.70;;;;;;4964444;28;86917;-84
2021/01/21 14:06:46;;;;;;;5.45;4.95;;;13.10;49.50;;;;;;4962805;28;86559;-84
2021/01/21 14:09:11;;;;;;;6.03;4.53;;;13.10;49.40;;;;;;4964677;28;89050;-86
2021/01/21 14:11:37;;;;;;;5.78;5.28;;;13.00;49.10;;;;;;4959487;28;87673;-86
2021/01/21 14:14:03;;;;;;;5.47;4.95;;;12.80;50.10;;;;;;4963872;28;86962;-86
2021/01/21 14:16:29;;;;;;;5.72;5.03;;;12.40;51.40;;;;;;4964769;28;87013;-86
2021/01/21 14:18:55;;;;;;;5.40;4.72;;;12.20;52.00;;;;;;4968717;28;86885;-83
2021/01/21 14:21:20;;;;;;;5.25;4.68;;;12.00;52.70;;;;;;4977473;28;86638;-83
2021/01/21 14:23:46;;;;;;;4.75;4.20;;;11.90;52.40;;;;;;4985534;28;86832;-84
2021/01/21 14:26:12;;;;;;;5.70;5.22;;;;;;;;;;4988554;28;85451;-84
2021/01/21 14:28:38;;;;;;;5.22;4.82;;;12.10;51.80;;;;;;4974398;28;87311;-86
2021/01/21 14:31:04;;;;;;;5.00;4.60;;;12.20;52.00;;;;;;4972516;28;87082;-84
2021/01/21 14:33:30;;;;;;;4.88;4.47;;;12.20;52.00;;;;;;4963844;28;87495;-84
2021/01/21 14:35:56;;;;;;;5.72;5.22;;;12.20;51.60;;;;;;4987402;28;86218;-83
2021/01/21 14:38:22;;;;;;;4.50;4.20;;;12.20;51.30;;;;;;4982018;28;87216;-85
2021/01/21 14:40:48;;;;;;;7.03;4.57;;;12.20;51.80;;;;;;4972648;28;86230;-85
2021/01/21 14:43:14;;;;;;;10.65;8.45;;;12.20;52.10;;;;;;4971026;28;86942;-86
2021/01/21 14:45:40;;;;;;;8.40;6.60;;;12.20;52.20;;;;;;4949214;28;86995;-85
2021/01/21 14:48:06;;;;;;;6.88;6.18;;;12.10;52.40;;;;;;4970435;28;86697;-84
2021/01/21 14:50:32;;;;;;;6.50;5.43;;;11.80;53.00;;;;;;4973051;28;86071;-84
2021/01/21 14:52:58;;;;;;;4.90;4.07;;;11.80;53.00;;;;;;4965938;28;86814;-83
2021/01/21 14:55:27;;;;;;;6.25;5.45;;;11.60;53.20;;;;;;4966515;28;86886;-86
2021/01/21 14:57:53;;;;;;;6.82;6.20;;;11.60;53.40;;;;;;4949043;28;87982;-86
2021/01/21 15:00:19;;;;;;;7.40;6.80;;;11.40;54.30;;;;;;4964068;28;87016;-84
2021/01/21 15:02:45;;;;;;;5.93;5.38;;;11.10;55.50;;;;;;4968339;28;86986;-83
2021/01/21 15:05:12;;;;;;;7.78;4.38;;;11.00;55.00;;;;;;4951770;28;86978;-84
2021/01/21 15:07:38;;;;;;;5.20;4.70;;;10.90;55.40;;;;;;4966804;28;86832;-85
2021/01/21 15:10:07;;;;;;;5.40;4.90;;;10.90;55.70;;;;;;4958074;28;86704;-84
2021/01/21 15:12:33;;;;;;;4.10;3.70;;;10.70;55.80;;;;;;4964851;28;86987;-83
2021/01/21 15:14:59;;;;;;;26.58;16.23;;;10.50;56.70;;;;;;4967155;28;86594;-86
2021/01/21 15:17:28;;;;;;;8.32;7.03;;;10.10;57.30;;;;;;4962955;28;87086;-84
2021/01/21 15:19:55;;;;;;;5.68;4.22;;;10.20;57.90;;;;;;4967437;28;86781;-85
2021/01/21 15:22:21;;;;;;;6.03;5.43;;;10.20;59.10;;;;;;4968949;28;87521;-85
2021/01/21 15:24:47;;;;;;;6.72;6.13;;;9.90;59.40;;;;;;4967584;28;86469;-85
2021/01/21 15:27:12;;;;;;;5.65;4.78;;;9.80;58.90;;;;;;4965330;28;87452;-84
2021/01/21 15:29:38;;;;;;;5.85;5.22;;;9.70;60.00;;;;;;4966811;28;86970;-85
2021/01/21 15:32:05;;;;;;;6.20;5.60;;;9.20;60.70;;;;;;4967397;28;86702;-85
2021/01/21 15:34:31;;;;;;;14.27;8.70;;;9.60;60.10;;;;;;4964140;28;86984;-84
2021/01/21 15:36:57;;;;;;;9.93;6.57;;;9.50;60.70;;;;;;4956302;28;86774;-86
2021/01/21 15:39:23;;;;;;;8.70;6.28;;;9.20;60.60;;;;;;4963114;28;86506;-84
2021/01/21 15:41:48;;;;;;;11.43;8.13;;;9.30;61.00;;;;;;4962314;28;86868;-86
2021/01/21 15:44:14;;;;;;;8.10;5.65;;;9.20;61.20;;;;;;4965018;28;87094;-84
2021/01/21 15:46:40;;;;;;;6.93;6.20;;;9.20;61.50;;;;;;4961742;28;88858;-84
2021/01/21 15:49:07;;;;;;;6.30;5.22;;;9.10;61.60;;;;;;4957041;28;87870;-84
2021/01/21 15:51:33;;;;;;;7.65;6.47;;;8.70;62.10;;;;;;4965853;28;86878;-86
2021/01/21 15:53:59;;;;;;;11.43;8.50;;;9.20;62.30;;;;;;4957333;28;87116;-84
2021/01/21 15:56:25;;;;;;;43.08;20.80;;;9.00;62.00;;;;;;4964611;28;88579;-82
2021/01/21 15:58:51;;;;;;;71.95;39.05;;;9.00;62.20;;;;;;4958835;28;87182;-83
2021/01/21 16:01:17;;;;;;;21.85;16.00;;;9.20;62.60;;;;;;4973577;28;86965;-82
2021/01/21 16:03:42;;;;;;;11.30;8.80;;;8.90;62.40;;;;;;4963255;28;86321;-83
2021/01/21 16:06:08;;;;;;;8.80;7.85;;;8.80;62.70;;;;;;4965546;28;86958;-83
2021/01/21 16:08:34;;;;;;;7.40;6.13;;;8.70;64.10;;;;;;4966202;28;86591;-83
2021/01/21 16:11:00;;;;;;;7.75;5.50;;;8.50;65.40;;;;;;4958499;28;87751;-83
2021/01/21 16:13:25;;;;;;;8.20;5.63;;;8.40;64.80;;;;;;4963586;28;86888;-83
2021/01/21 16:15:51;;;;;;;8.55;6.75;;;8.30;65.40;;;;;;4963053;28;87233;-83
2021/01/21 16:18:18;;;;;;;9.23;7.00;;;8.20;67.20;;;;;;4957803;28;86575;-82
2021/01/21 16:20:48;;;;;;;8.68;6.15;;;8.10;66.80;;;;;;4966340;28;86962;-81
2021/01/21 16:23:14;;;;;;;9.35;6.10;;;8.00;67.40;;;;;;4959458;28;86726;-82
2021/01/21 16:25:39;;;;;;;9.40;6.50;;;8.00;68.00;;;;;;4957105;28;86949;-82
2021/01/21 16:28:05;;;;;;;12.18;8.50;;;7.90;68.90;;;;;;4960442;28;87882;-82
2021/01/21 16:30:32;;;;;;;11.13;7.35;;;8.00;66.80;;;;;;4967027;28;86667;-82
2021/01/21 16:32:58;;;;;;;9.23;7.57;;;8.10;67.10;;;;;;4962323;28;86866;-82
2021/01/21 16:35:24;;;;;;;8.02;5.60;;;8.10;67.80;;;;;;4949720;28;87466;-82